sensor_id;sensor_type;location;lat;lon;timestamp;pressure;altitude;pressure_sealevel;temperature;humidity
20160;BME280;50187;50.492;12.134;2024-03-23T00:56:14;96748.44;;;20.19;36.77
20160;BME280;50187;50.492;12.134;2024-03-23T00:58:58;96735.94;;;20.18;36.67
20160;BME280;50187;50.492;12.134;2024-03-23T01:01:43;96737.25;;;20.22;36.36
20160;BME280;50187;50.492;12.134;2024-03-23T01:04:27;96734.41;;;20.23;36.53
20160;BME280;50187;50.492;12.134;2024-03-23T01:07:12;96725.63;;;20.21;36.54
20160;BME280;50187;50.492;12.134;2024-03-23T01:09:56;96710.09;;;20.23;36.42
20160;BME280;50187;50.492;12.134;2024-03-23T01:12:41;96709.25;;;20.23;36.57
20160;BME280;50187;50.492;12.134;2024-03-23T01:15:25;96697.31;;;20.17;36.66
20160;BME280;50187;50.492;12.134;2024-03-23T01:18:10;96694.81;;;20.16;36.58
20160;BME280;50187;50.492;12.134;2024-03-23T01:20:54;96691.09;;;20.17;36.36
20160;BME280;50187;50.492;12.134;2024-03-23T01:23:39;96691.09;;;20.17;36.55
20160;BME280;50187;50.492;12.134;2024-03-23T01:26:23;96681.94;;;20.18;36.29
20160;BME280;50187;50.492;12.134;2024-03-23T01:29:08;96687.84;;;20.21;36.28
20160;BME280;50187;50.492;12.134;2024-03-23T01:31:52;96678.22;;;20.19;36.37
20160;BME280;50187;50.492;12.134;2024-03-23T01:34:37;96675.16;;;20.22;36.31
20160;BME280;50187;50.492;12.134;2024-03-23T01:37:21;96680.75;;;20.20;36.22
20160;BME280;50187;50.492;12.134;2024-03-23T01:40:06;96672.81;;;20.19;36.58
20160;BME280;50187;50.492;12.134;2024-03-23T01:42:57;96674.88;;;20.17;36.45
20160;BME280;50187;50.492;12.134;2024-03-23T01:45:42;96676.09;;;20.14;36.46
20160;BME280;50187;50.492;12.134;2024-03-23T01:48:26;96674.03;;;20.16;36.52
20160;BME280;50187;50.492;12.134;2024-03-23T01:51:12;96674.88;;;20.17;36.52
20160;BME280;50187;50.492;12.134;2024-03-23T01:53:57;96667.81;;;20.16;36.50
20160;BME280;50187;50.492;12.134;2024-03-23T01:56:45;96660.34;;;20.18;36.55
20160;BME280;50187;50.492;12.134;2024-03-23T01:59:29;96650.78;;;20.15;36.53
20160;BME280;50187;50.492;12.134;2024-03-23T02:02:14;96646.84;;;20.18;36.38
20160;BME280;50187;50.492;12.134;2024-03-23T02:04:58;96646.84;;;20.18;36.24
20160;BME280;50187;50.492;12.134;2024-03-23T02:07:43;96637.91;;;20.17;36.25
20160;BME280;50187;50.492;12.134;2024-03-23T02:10:27;96631.88;;;20.15;36.44
20160;BME280;50187;50.492;12.134;2024-03-23T02:13:11;96631.22;;;20.13;36.42
20160;BME280;50187;50.492;12.134;2024-03-23T02:15:55;96629.53;;;20.12;36.36
20160;BME280;50187;50.492;12.134;2024-03-23T02:18:40;96633.91;;;20.13;36.27
20160;BME280;50187;50.492;12.134;2024-03-23T02:21:24;96624.78;;;20.14;36.44
20160;BME280;50187;50.492;12.134;2024-03-23T02:24:09;96624.59;;;20.16;36.39
20160;BME280;50187;50.492;12.134;2024-03-23T02:26:54;96614.63;;;20.16;36.38
20160;BME280;50187;50.492;12.134;2024-03-23T02:29:38;96614.63;;;20.16;36.36
20160;BME280;50187;50.492;12.134;2024-03-23T02:32:23;96607.59;;;20.15;36.30
20160;BME280;50187;50.492;12.134;2024-03-23T02:35:07;96597.78;;;20.14;36.14
20160;BME280;50187;50.492;12.134;2024-03-23T02:37:52;96594.63;;;20.11;36.43
20160;BME280;50187;50.492;12.134;2024-03-23T02:40:37;96594.16;;;20.07;36.31
20160;BME280;50187;50.492;12.134;2024-03-23T02:43:22;96598.72;;;20.06;36.38
20160;BME280;50187;50.492;12.134;2024-03-23T02:46:06;96583.81;;;20.11;36.47
20160;BME280;50187;50.492;12.134;2024-03-23T02:48:51;96576.78;;;20.10;36.33
20160;BME280;50187;50.492;12.134;2024-03-23T02:51:35;96562.16;;;20.04;36.41
20160;BME280;50187;50.492;12.134;2024-03-23T02:54:20;96580.28;;;20.10;36.16
20160;BME280;50187;50.492;12.134;2024-03-23T02:57:04;96572.19;;;20.10;36.40
20160;BME280;50187;50.492;12.134;2024-03-23T02:59:49;96566.78;;;20.10;36.21
20160;BME280;50187;50.492;12.134;2024-03-23T03:02:33;96562.41;;;20.09;36.33
20160;BME280;50187;50.492;12.134;2024-03-23T03:05:18;96551.81;;;20.07;36.13
20160;BME280;50187;50.492;12.134;2024-03-23T03:08:02;96542.22;;;20.05;36.33
20160;BME280;50187;50.492;12.134;2024-03-23T03:10:47;96539.31;;;20.06;36.43
20160;BME280;50187;50.492;12.134;2024-03-23T03:13:31;96530.41;;;20.06;36.35
20160;BME280;50187;50.492;12.134;2024-03-23T03:16:15;96535.81;;;20.06;36.21
20160;BME280;50187;50.492;12.134;2024-03-23T03:19:00;96530.22;;;20.07;36.31
20160;BME280;50187;50.492;12.134;2024-03-23T03:21:45;96532.09;;;20.07;36.10
20160;BME280;50187;50.492;12.134;2024-03-23T03:24:29;96527.50;;;20.07;36.20
20160;BME280;50187;50.492;12.134;2024-03-23T03:27:14;96525.81;;;20.06;36.11
20160;BME280;50187;50.492;12.134;2024-03-23T03:29:59;96522.31;;;20.06;36.10
20160;BME280;50187;50.492;12.134;2024-03-23T03:32:45;96519.97;;;20.03;36.35
20160;BME280;50187;50.492;12.134;2024-03-23T03:35:29;96522.00;;;20.01;36.46
20160;BME280;50187;50.492;12.134;2024-03-23T03:38:14;96511.06;;;20.02;36.18
20160;BME280;50187;50.492;12.134;2024-03-23T03:40:59;96507.31;;;20.03;36.20
20160;BME280;50187;50.492;12.134;2024-03-23T03:43:43;96497.38;;;20.04;36.33
20160;BME280;50187;50.492;12.134;2024-03-23T03:46:28;96490.94;;;20.05;36.02
20160;BME280;50187;50.492;12.134;2024-03-23T03:49:13;96483.03;;;20.03;36.33
20160;BME280;50187;50.492;12.134;2024-03-23T03:51:57;96478.66;;;20.02;36.29
20160;BME280;50187;50.492;12.134;2024-03-23T03:54:42;96467.00;;;20.02;36.35
20160;BME280;50187;50.492;12.134;2024-03-23T03:57:26;96464.31;;;20.02;36.10
20160;BME280;50187;50.492;12.134;2024-03-23T04:00:11;96448.50;;;19.99;36.16
20160;BME280;50187;50.492;12.134;2024-03-23T04:02:56;96435.00;;;19.99;36.34
20160;BME280;50187;50.492;12.134;2024-03-23T04:05:41;96423.38;;;19.98;36.31
20160;BME280;50187;50.492;12.134;2024-03-23T04:08:25;96424.22;;;19.99;36.31
20160;BME280;50187;50.492;12.134;2024-03-23T04:11:10;96421.50;;;19.99;36.06
20160;BME280;50187;50.492;12.134;2024-03-23T04:13:54;96407.75;;;19.94;36.26
20160;BME280;50187;50.492;12.134;2024-03-23T04:16:39;96415.28;;;19.98;36.22
20160;BME280;50187;50.492;12.134;2024-03-23T04:19:23;96412.78;;;19.97;36.08
20160;BME280;50187;50.492;12.134;2024-03-23T04:22:08;96410.91;;;19.97;36.23
20160;BME280;50187;50.492;12.134;2024-03-23T04:24:56;96405.72;;;19.96;36.04
20160;BME280;50187;50.492;12.134;2024-03-23T04:27:40;96392.22;;;19.96;36.08
20160;BME280;50187;50.492;12.134;2024-03-23T04:30:26;96394.25;;;19.94;36.10
20160;BME280;50187;50.492;12.134;2024-03-23T04:33:12;96387.63;;;19.96;36.40
20160;BME280;50187;50.492;12.134;2024-03-23T04:35:56;96373.31;;;19.96;36.00
20160;BME280;50187;50.492;12.134;2024-03-23T04:38:41;96369.75;;;19.95;36.28
20160;BME280;50187;50.492;12.134;2024-03-23T04:41:26;96358.16;;;19.95;35.97
20160;BME280;50187;50.492;12.134;2024-03-23T04:44:10;96351.94;;;19.94;36.31
20160;BME280;50187;50.492;12.134;2024-03-23T04:46:55;96354.81;;;19.93;36.04
20160;BME280;50187;50.492;12.134;2024-03-23T04:49:39;96366.44;;;19.93;36.12
20160;BME280;50187;50.492;12.134;2024-03-23T04:52:23;96374.91;;;19.90;36.33
20160;BME280;50187;50.492;12.134;2024-03-23T04:55:08;96382.16;;;19.89;36.32
20160;BME280;50187;50.492;12.134;2024-03-23T04:57:52;96365.53;;;19.86;36.21
20160;BME280;50187;50.492;12.134;2024-03-23T05:00:37;96346.88;;;19.91;36.22
20160;BME280;50187;50.492;12.134;2024-03-23T05:03:21;96358.63;;;19.98;36.21
20160;BME280;50187;50.492;12.134;2024-03-23T05:06:06;96351.63;;;20.04;35.94
20160;BME280;50187;50.492;12.134;2024-03-23T05:08:51;96365.09;;;20.04;36.12
20160;BME280;50187;50.492;12.134;2024-03-23T05:11:35;96334.56;;;20.03;35.94
20160;BME280;50187;50.492;12.134;2024-03-23T05:14:20;96335.03;;;20.07;35.79
20160;BME280;50187;50.492;12.134;2024-03-23T05:17:04;96329.72;;;20.14;36.07
20160;BME280;50187;50.492;12.134;2024-03-23T05:19:49;96319.34;;;20.17;35.75
20160;BME280;50187;50.492;12.134;2024-03-23T05:22:33;96319.34;;;20.17;35.86
20160;BME280;50187;50.492;12.134;2024-03-23T05:25:18;96317.94;;;20.21;35.73
20160;BME280;50187;50.492;12.134;2024-03-23T05:28:03;96310.28;;;20.25;35.77
20160;BME280;50187;50.492;12.134;2024-03-23T05:30:51;96306.16;;;20.29;35.72
20160;BME280;50187;50.492;12.134;2024-03-23T05:33:36;96308.69;;;20.31;35.95
20160;BME280;50187;50.492;12.134;2024-03-23T05:36:22;96294.13;;;20.32;35.65
20160;BME280;50187;50.492;12.134;2024-03-23T05:39:07;96295.41;;;20.36;35.60
20160;BME280;50187;50.492;12.134;2024-03-23T05:41:52;96299.38;;;20.40;35.86
20160;BME280;50187;50.492;12.134;2024-03-23T05:44:36;96287.56;;;20.41;35.83
20160;BME280;50187;50.492;12.134;2024-03-23T05:47:21;96293.59;;;20.43;35.49
20160;BME280;50187;50.492;12.134;2024-03-23T05:50:06;96290.88;;;20.43;35.47
20160;BME280;50187;50.492;12.134;2024-03-23T05:52:50;96271.97;;;20.43;35.51
20160;BME280;50187;50.492;12.134;2024-03-23T05:55:35;96275.13;;;20.47;35.53
20160;BME280;50187;50.492;12.134;2024-03-23T05:58:20;96260.63;;;20.48;35.74
20160;BME280;50187;50.492;12.134;2024-03-23T06:01:04;96243.16;;;20.50;35.60
20160;BME280;50187;50.492;12.134;2024-03-23T06:03:48;96240.44;;;20.50;35.65
20160;BME280;50187;50.492;12.134;2024-03-23T06:06:33;96242.13;;;20.51;35.52
20160;BME280;50187;50.492;12.134;2024-03-23T06:09:18;96242.97;;;20.52;35.61
20160;BME280;50187;50.492;12.134;2024-03-23T06:12:03;96226.56;;;20.53;35.38
20160;BME280;50187;50.492;12.134;2024-03-23T06:14:48;96223.47;;;20.56;35.69
20160;BME280;50187;50.492;12.134;2024-03-23T06:17:34;96223.69;;;20.55;35.41
20160;BME280;50187;50.492;12.134;2024-03-23T06:20:18;96212.00;;;20.54;35.52
20160;BME280;50187;50.492;12.134;2024-03-23T06:23:03;96217.41;;;20.54;35.45
20160;BME280;50187;50.492;12.134;2024-03-23T06:25:47;96210.78;;;20.57;35.30
20160;BME280;50187;50.492;12.134;2024-03-23T06:28:31;96213.28;;;20.58;35.42
20160;BME280;50187;50.492;12.134;2024-03-23T06:31:16;96217.25;;;20.63;35.26
20160;BME280;50187;50.492;12.134;2024-03-23T06:34:00;96214.56;;;20.63;35.44
20160;BME280;50187;50.492;12.134;2024-03-23T06:36:46;96206.88;;;20.59;35.56
20160;BME280;50187;50.492;12.134;2024-03-23T06:39:31;96192.09;;;20.55;35.37
20160;BME280;50187;50.492;12.134;2024-03-23T06:42:15;96197.94;;;20.66;35.53
20160;BME280;50187;50.492;12.134;2024-03-23T06:45:00;96190.91;;;20.65;35.39
20160;BME280;50187;50.492;12.134;2024-03-23T06:47:44;96186.13;;;20.67;35.33
20160;BME280;50187;50.492;12.134;2024-03-23T06:50:29;96174.50;;;20.66;35.52
20160;BME280;50187;50.492;12.134;2024-03-23T06:53:14;96190.91;;;20.65;35.28
20160;BME280;50187;50.492;12.134;2024-03-23T06:55:58;96185.50;;;20.65;35.41
20160;BME280;50187;50.492;12.134;2024-03-23T06:58:43;96172.81;;;20.65;35.50
20160;BME280;50187;50.492;12.134;2024-03-23T07:01:28;96167.69;;;20.70;35.29
20160;BME280;50187;50.492;12.134;2024-03-23T07:04:15;96155.00;;;20.71;35.66
20160;BME280;50187;50.492;12.134;2024-03-23T07:06:59;96166.00;;;20.69;35.39
20160;BME280;50187;50.492;12.134;2024-03-23T07:09:45;96169.72;;;20.68;35.49
20160;BME280;50187;50.492;12.134;2024-03-23T07:12:29;96175.13;;;20.68;35.73
20160;BME280;50187;50.492;12.134;2024-03-23T07:15:14;96185.53;;;20.71;35.43
20160;BME280;50187;50.492;12.134;2024-03-23T07:17:59;96178.28;;;20.72;35.48
20160;BME280;50187;50.492;12.134;2024-03-23T07:20:52;96171.22;;;20.71;35.71
20160;BME280;50187;50.492;12.134;2024-03-23T07:23:37;96155.81;;;20.71;35.51
20160;BME280;50187;50.492;12.134;2024-03-23T07:26:21;96162.50;;;20.69;35.57
20160;BME280;50187;50.492;12.134;2024-03-23T07:29:06;96160.41;;;20.71;35.69
20160;BME280;50187;50.492;12.134;2024-03-23T07:31:51;96153.97;;;20.72;35.84
20160;BME280;50187;50.492;12.134;2024-03-23T07:34:35;96146.91;;;20.71;35.58
20160;BME280;50187;50.492;12.134;2024-03-23T07:37:20;96140.47;;;20.72;35.61
20160;BME280;50187;50.492;12.134;2024-03-23T07:40:04;96147.72;;;20.71;35.59
20160;BME280;50187;50.492;12.134;2024-03-23T07:42:49;96152.28;;;20.71;35.55
20160;BME280;50187;50.492;12.134;2024-03-23T07:45:33;96156.03;;;20.70;35.69
20160;BME280;50187;50.492;12.134;2024-03-23T07:48:18;96162.28;;;20.70;35.86
20160;BME280;50187;50.492;12.134;2024-03-23T07:53:48;96172.88;;;20.72;35.59
20160;BME280;50187;50.492;12.134;2024-03-23T07:56:33;96172.59;;;20.67;35.79
20160;BME280;50187;50.492;12.134;2024-03-23T07:59:18;96157.28;;;20.67;35.88
20160;BME280;50187;50.492;12.134;2024-03-23T08:02:04;96167.22;;;20.67;35.96
20160;BME280;50187;50.492;12.134;2024-03-23T08:04:48;96169.91;;;20.67;35.95
20160;BME280;50187;50.492;12.134;2024-03-23T08:07:33;96177.63;;;20.70;35.75
20160;BME280;50187;50.492;12.134;2024-03-23T08:10:17;96185.75;;;20.70;35.65
20160;BME280;50187;50.492;12.134;2024-03-23T08:13:02;96188.44;;;20.70;35.76
20160;BME280;50187;50.492;12.134;2024-03-23T08:15:46;96194.06;;;20.68;35.75
20160;BME280;50187;50.492;12.134;2024-03-23T08:18:31;96207.56;;;20.68;35.73
20160;BME280;50187;50.492;12.134;2024-03-23T08:21:15;96204.66;;;20.70;35.78
20160;BME280;50187;50.492;12.134;2024-03-23T08:24:00;96214.25;;;20.72;35.69
20160;BME280;50187;50.492;12.134;2024-03-23T08:26:44;96214.03;;;20.74;35.69
20160;BME280;50187;50.492;12.134;2024-03-23T08:29:29;96213.22;;;20.73;35.61
20160;BME280;50187;50.492;12.134;2024-03-23T08:32:13;96237.06;;;20.70;35.94
20160;BME280;50187;50.492;12.134;2024-03-23T08:34:58;96247.69;;;20.71;35.73
20160;BME280;50187;50.492;12.134;2024-03-23T08:37:42;96277.88;;;20.75;35.60
20160;BME280;50187;50.492;12.134;2024-03-23T08:40:27;96294.06;;;20.75;35.69
20160;BME280;50187;50.492;12.134;2024-03-23T08:43:11;96320.28;;;20.74;35.57
20160;BME280;50187;50.492;12.134;2024-03-23T08:46:10;96331.91;;;20.75;35.47
20160;BME280;50187;50.492;12.134;2024-03-23T08:48:54;96351.66;;;20.75;35.87
20160;BME280;50187;50.492;12.134;2024-03-23T08:51:39;96365.16;;;20.75;35.86
20160;BME280;50187;50.492;12.134;2024-03-23T08:54:23;96374.75;;;20.78;35.54
20160;BME280;50187;50.492;12.134;2024-03-23T08:57:08;96387.63;;;20.76;35.70
20160;BME280;50187;50.492;12.134;2024-03-23T08:59:53;96408.84;;;20.79;35.73
20160;BME280;50187;50.492;12.134;2024-03-23T09:02:37;96430.66;;;20.78;35.72
20160;BME280;50187;50.492;12.134;2024-03-23T09:05:22;96454.53;;;20.74;35.67
20160;BME280;50187;50.492;12.134;2024-03-23T09:08:08;96478.28;;;20.79;35.45
20160;BME280;50187;50.492;12.134;2024-03-23T09:10:52;96500.34;;;20.82;35.43
20160;BME280;50187;50.492;12.134;2024-03-23T09:13:37;96513.03;;;20.82;35.56
20160;BME280;50187;50.492;12.134;2024-03-23T09:16:22;96523.84;;;20.82;35.54
20160;BME280;50187;50.492;12.134;2024-03-23T09:19:06;96517.56;;;20.81;35.48
20160;BME280;50187;50.492;12.134;2024-03-23T09:21:51;96528.22;;;20.83;35.38
20160;BME280;50187;50.492;12.134;2024-03-23T09:24:36;96533.44;;;20.84;35.36
20160;BME280;50187;50.492;12.134;2024-03-23T09:27:20;96536.13;;;20.84;35.42
20160;BME280;50187;50.492;12.134;2024-03-23T09:30:05;96542.19;;;20.86;35.60
20160;BME280;50187;50.492;12.134;2024-03-23T09:32:50;96549.00;;;20.82;35.35
20160;BME280;50187;50.492;12.134;2024-03-23T09:35:38;96551.09;;;20.87;35.61
20160;BME280;50187;50.492;12.134;2024-03-23T09:38:23;96559.88;;;20.89;35.20
20160;BME280;50187;50.492;12.134;2024-03-23T09:41:08;96563.16;;;20.84;35.42
20160;BME280;50187;50.492;12.134;2024-03-23T09:43:53;96573.31;;;20.82;35.30
20160;BME280;50187;50.492;12.134;2024-03-23T09:46:38;96587.50;;;20.84;35.50
20160;BME280;50187;50.492;12.134;2024-03-23T09:49:23;96598.75;;;20.88;35.47
20160;BME280;50187;50.492;12.134;2024-03-23T09:52:07;96595.22;;;20.87;35.25
20160;BME280;50187;50.492;12.134;2024-03-23T09:54:52;96605.16;;;20.87;35.39
20160;BME280;50187;50.492;12.134;2024-03-23T09:57:36;96626.78;;;20.87;35.29
20160;BME280;50187;50.492;12.134;2024-03-23T10:00:21;96634.75;;;20.88;35.27
20160;BME280;50187;50.492;12.134;2024-03-23T10:03:05;96650.09;;;20.88;35.44
20160;BME280;50187;50.492;12.134;2024-03-23T10:06:04;96669.22;;;20.86;35.59
20160;BME280;50187;50.492;12.134;2024-03-23T10:08:49;96670.03;;;20.87;35.47
20160;BME280;50187;50.492;12.134;2024-03-23T10:11:33;96679.63;;;20.89;35.33
20160;BME280;50187;50.492;12.134;2024-03-23T10:14:29;96675.09;;;20.90;35.29
20160;BME280;50187;50.492;12.134;2024-03-23T10:20:02;96696.91;;;20.88;35.45
20160;BME280;50187;50.492;12.134;2024-03-23T10:22:46;96699.22;;;20.91;35.28
20160;BME280;50187;50.492;12.134;2024-03-23T10:25:31;96696.53;;;20.91;35.01
20160;BME280;50187;50.492;12.134;2024-03-23T10:28:15;96697.34;;;20.92;35.16
20160;BME280;50187;50.492;12.134;2024-03-23T10:31:11;96704.63;;;20.91;35.25
20160;BME280;50187;50.492;12.134;2024-03-23T10:33:56;96701.72;;;20.93;35.12
20160;BME280;50187;50.492;12.134;2024-03-23T10:36:41;96702.56;;;20.93;34.90
20160;BME280;50187;50.492;12.134;2024-03-23T10:39:26;96692.13;;;20.90;34.84
20160;BME280;50187;50.492;12.134;2024-03-23T10:42:11;96704.63;;;20.91;35.08
20160;BME280;50187;50.492;12.134;2024-03-23T10:44:55;96707.16;;;20.93;35.04
20160;BME280;50187;50.492;12.134;2024-03-23T10:47:40;96714.25;;;20.94;34.86
20160;BME280;50187;50.492;12.134;2024-03-23T10:50:25;96720.47;;;20.95;34.97
20160;BME280;50187;50.492;12.134;2024-03-23T10:53:10;96727.91;;;20.92;34.94
20160;BME280;50187;50.492;12.134;2024-03-23T10:55:56;96722.50;;;20.92;35.21
20160;BME280;50187;50.492;12.134;2024-03-23T10:58:46;96724.19;;;20.93;34.89
20160;BME280;50187;50.492;12.134;2024-03-23T11:01:32;96730.25;;;20.96;35.13
20160;BME280;50187;50.492;12.134;2024-03-23T11:04:29;96750.22;;;20.95;34.92
20160;BME280;50187;50.492;12.134;2024-03-23T11:13:22;96746.69;;;20.94;34.86
20160;BME280;50187;50.492;12.134;2024-03-23T11:16:21;96741.63;;;20.91;34.93
20160;BME280;50187;50.492;12.134;2024-03-23T11:19:33;96736.41;;;20.89;35.13
20160;BME280;50187;50.492;12.134;2024-03-23T11:25:28;96728.78;;;20.93;34.83
20160;BME280;50187;50.492;12.134;2024-03-23T11:28:13;96738.38;;;20.96;34.97
20160;BME280;50187;50.492;12.134;2024-03-23T11:30:57;96729.88;;;20.99;35.01
20160;BME280;50187;50.492;12.134;2024-03-23T11:33:41;96731.19;;;21.03;35.13
20160;BME280;50187;50.492;12.134;2024-03-23T11:36:26;96741.13;;;21.02;34.98
20160;BME280;50187;50.492;12.134;2024-03-23T11:39:19;96751.31;;;21.00;35.13
20160;BME280;50187;50.492;12.134;2024-03-23T11:42:04;96760.63;;;20.98;35.04
20160;BME280;50187;50.492;12.134;2024-03-23T11:44:48;96765.22;;;20.97;34.93
20160;BME280;50187;50.492;12.134;2024-03-23T11:47:32;96779.94;;;20.95;34.92
20160;BME280;50187;50.492;12.134;2024-03-23T11:50:20;96765.66;;;21.01;35.07
20160;BME280;50187;50.492;12.134;2024-03-23T11:55:53;96765.56;;;21.09;34.88
20160;BME280;50187;50.492;12.134;2024-03-23T11:58:38;96765.75;;;21.07;34.84
20160;BME280;50187;50.492;12.134;2024-03-23T12:01:23;96773.41;;;21.04;34.72
20160;BME280;50187;50.492;12.134;2024-03-23T12:04:07;96774.16;;;20.98;35.20
20160;BME280;50187;50.492;12.134;2024-03-23T12:07:10;96769.56;;;20.98;35.07
20160;BME280;50187;50.492;12.134;2024-03-23T12:10:04;96760.00;;;20.96;35.18
20160;BME280;50187;50.492;12.134;2024-03-23T12:13:02;96759.63;;;20.99;35.10
20160;BME280;50187;50.492;12.134;2024-03-23T12:15:49;96757.75;;;20.99;34.99
20160;BME280;50187;50.492;12.134;2024-03-23T12:18:34;96749.25;;;21.02;34.90
20160;BME280;50187;50.492;12.134;2024-03-23T12:21:19;96759.13;;;21.10;34.76
20160;BME280;50187;50.492;12.134;2024-03-23T12:24:03;96755.13;;;21.06;35.04
20160;BME280;50187;50.492;12.134;2024-03-23T12:26:48;96751.31;;;21.00;34.86
20160;BME280;50187;50.492;12.134;2024-03-23T12:29:34;96748.13;;;20.97;35.26
20160;BME280;50187;50.492;12.134;2024-03-23T12:32:18;96760.63;;;20.98;35.07
20160;BME280;50187;50.492;12.134;2024-03-23T12:35:03;96748.53;;;20.93;35.19
20160;BME280;50187;50.492;12.134;2024-03-23T12:37:47;96748.31;;;20.95;35.22
20160;BME280;50187;50.492;12.134;2024-03-23T12:40:32;96748.53;;;20.93;35.16
20160;BME280;50187;50.492;12.134;2024-03-23T12:43:17;96740.41;;;20.93;35.12
20160;BME280;50187;50.492;12.134;2024-03-23T12:46:01;96743.41;;;20.99;34.95
20160;BME280;50187;50.492;12.134;2024-03-23T12:48:46;96741.31;;;21.01;34.85
20160;BME280;50187;50.492;12.134;2024-03-23T12:51:31;96747.78;;;21.00;34.90
20160;BME280;50187;50.492;12.134;2024-03-23T12:54:16;96741.53;;;20.99;35.12
20160;BME280;50187;50.492;12.134;2024-03-23T12:57:00;96745.44;;;20.97;35.15
20160;BME280;50187;50.492;12.134;2024-03-23T12:59:45;96733.31;;;20.92;35.07
20160;BME280;50187;50.492;12.134;2024-03-23T13:02:34;96751.69;;;20.97;34.96
20160;BME280;50187;50.492;12.134;2024-03-23T13:05:19;96745.44;;;20.97;35.08
20160;BME280;50187;50.492;12.134;2024-03-23T13:08:03;96745.25;;;20.98;34.94
20160;BME280;50187;50.492;12.134;2024-03-23T13:10:51;96738.19;;;20.97;35.08
20160;BME280;50187;50.492;12.134;2024-03-23T13:13:36;96733.78;;;20.96;35.10
20160;BME280;50187;50.492;12.134;2024-03-23T13:16:20;96743.78;;;20.96;35.23
20160;BME280;50187;50.492;12.134;2024-03-23T13:19:05;96738.72;;;20.92;35.26
20160;BME280;50187;50.492;12.134;2024-03-23T13:21:49;96731.28;;;20.95;35.15
20160;BME280;50187;50.492;12.134;2024-03-23T13:24:34;96718.59;;;20.95;35.10
20160;BME280;50187;50.492;12.134;2024-03-23T13:27:18;96729.31;;;21.03;34.83
20160;BME280;50187;50.492;12.134;2024-03-23T13:30:04;96729.78;;;21.07;34.91
20160;BME280;50187;50.492;12.134;2024-03-23T13:32:48;96727.06;;;21.07;34.77
20160;BME280;50187;50.492;12.134;2024-03-23T13:35:33;96722.03;;;21.04;34.90
20160;BME280;50187;50.492;12.134;2024-03-23T13:38:17;96712.88;;;21.05;34.87
20160;BME280;50187;50.492;12.134;2024-03-23T13:41:02;96702.47;;;21.02;34.80
20160;BME280;50187;50.492;12.134;2024-03-23T13:43:48;96693.06;;;20.98;34.98
20160;BME280;50187;50.492;12.134;2024-03-23T13:46:33;96689.13;;;21.00;35.04
20160;BME280;50187;50.492;12.134;2024-03-23T13:52:10;96704.06;;;20.96;34.93
20160;BME280;50187;50.492;12.134;2024-03-23T13:54:55;96700.53;;;20.96;34.86
20160;BME280;50187;50.492;12.134;2024-03-23T13:57:40;96698.84;;;20.95;34.97
20160;BME280;50187;50.492;12.134;2024-03-23T14:00:25;96707.16;;;20.93;35.04
20160;BME280;50187;50.492;12.134;2024-03-23T14:03:10;96701.72;;;20.93;34.77
20160;BME280;50187;50.492;12.134;2024-03-23T14:05:58;96698.38;;;20.91;34.79
20160;BME280;50187;50.492;12.134;2024-03-23T14:08:42;96698.38;;;20.91;34.86
20160;BME280;50187;50.492;12.134;2024-03-23T14:11:27;96696.97;;;20.95;34.66
20160;BME280;50187;50.492;12.134;2024-03-23T14:14:12;96706.13;;;20.94;34.71
20160;BME280;50187;50.492;12.134;2024-03-23T14:16:56;96694.00;;;20.90;34.68
20160;BME280;50187;50.492;12.134;2024-03-23T14:19:41;96695.47;;;20.92;34.82
20160;BME280;50187;50.492;12.134;2024-03-23T14:22:26;96691.75;;;20.93;34.65
20160;BME280;50187;50.492;12.134;2024-03-23T14:25:10;96680.31;;;20.91;34.59
20160;BME280;50187;50.492;12.134;2024-03-23T14:27:55;96689.72;;;20.96;34.86
20160;BME280;50187;50.492;12.134;2024-03-23T14:30:41;96686.34;;;20.93;34.82
20160;BME280;50187;50.492;12.134;2024-03-23T14:33:26;96693.63;;;20.93;34.79
20160;BME280;50187;50.492;12.134;2024-03-23T14:36:10;96684.50;;;20.94;34.76
20160;BME280;50187;50.492;12.134;2024-03-23T14:38:55;96682.63;;;20.95;34.57
20160;BME280;50187;50.492;12.134;2024-03-23T14:41:40;96679.72;;;20.96;34.75
20160;BME280;50187;50.492;12.134;2024-03-23T14:44:25;96680.56;;;20.97;34.71
20160;BME280;50187;50.492;12.134;2024-03-23T14:47:10;96677.84;;;20.97;34.79
20160;BME280;50187;50.492;12.134;2024-03-23T14:49:55;96673.84;;;20.92;34.83
20160;BME280;50187;50.492;12.134;2024-03-23T14:52:39;96666.41;;;20.95;34.66
20160;BME280;50187;50.492;12.134;2024-03-23T14:55:24;96657.47;;;20.94;34.97
20160;BME280;50187;50.492;12.134;2024-03-23T14:58:08;96662.00;;;20.93;34.68
20160;BME280;50187;50.492;12.134;2024-03-23T15:00:53;96663.50;;;20.96;34.58
20160;BME280;50187;50.492;12.134;2024-03-23T15:03:37;96666.59;;;20.93;34.63
20160;BME280;50187;50.492;12.134;2024-03-23T15:06:23;96666.78;;;20.91;34.68
20160;BME280;50187;50.492;12.134;2024-03-23T15:09:08;96671.81;;;20.95;34.47
20160;BME280;50187;50.492;12.134;2024-03-23T15:11:55;96671.81;;;20.95;34.51
20160;BME280;50187;50.492;12.134;2024-03-23T15:14:40;96668.91;;;20.96;34.83
20160;BME280;50187;50.492;12.134;2024-03-23T15:17:24;96677.84;;;20.97;34.53
20160;BME280;50187;50.492;12.134;2024-03-23T15:20:09;96678.72;;;20.97;34.74
20160;BME280;50187;50.492;12.134;2024-03-23T15:22:55;96669.28;;;20.93;34.81
20160;BME280;50187;50.492;12.134;2024-03-23T15:25:40;96676.56;;;20.92;34.87
20160;BME280;50187;50.492;12.134;2024-03-23T15:28:25;96674.22;;;20.89;34.67
20160;BME280;50187;50.492;12.134;2024-03-23T15:31:27;96665.56;;;20.94;34.64
20160;BME280;50187;50.492;12.134;2024-03-23T15:34:11;96663.88;;;20.93;34.74
20160;BME280;50187;50.492;12.134;2024-03-23T15:36:56;96669.94;;;20.95;34.61
20160;BME280;50187;50.492;12.134;2024-03-23T15:39:40;96661.00;;;20.95;34.45